createdAt,value
2023-04-13T00:02:15.427Z,100.00
2023-04-13T00:05:02.717Z,100.00
2023-04-13T00:07:50.846Z,100.00
2023-04-13T00:10:36.627Z,100.00
2023-04-13T00:13:22.082Z,100.00
2023-04-13T00:16:09.607Z,100.00
2023-04-13T00:18:54.789Z,100.00
2023-04-13T00:21:40.333Z,100.00
2023-04-13T00:24:25.911Z,100.00
2023-04-13T00:27:12.298Z,100.00
2023-04-13T00:29:57.823Z,100.00
2023-04-13T00:32:44.928Z,100.00
2023-04-13T00:35:32.122Z,100.00
2023-04-13T00:38:18.272Z,100.00
2023-04-13T00:41:07.267Z,100.00
2023-04-13T00:43:52.737Z,100.00
2023-04-13T00:46:37.946Z,99.73
2023-04-13T00:49:26.969Z,99.40
2023-04-13T00:52:14.639Z,99.22
2023-04-13T00:55:08.351Z,98.90
2023-04-13T00:57:53.750Z,98.81
2023-04-13T01:00:39.145Z,98.92
2023-04-13T01:03:27.386Z,99.11
2023-04-13T01:06:38.374Z,99.43
2023-04-13T01:09:41.894Z,99.23
2023-04-13T01:12:51.355Z,99.53
2023-04-13T01:15:42.973Z,99.73
2023-04-13T01:18:31.949Z,100.00
2023-04-13T01:21:20.000Z,100.00
2023-04-13T01:24:38.093Z,100.00
2023-04-13T01:27:42.991Z,100.00
2023-04-13T01:30:41.497Z,100.00
2023-04-13T01:33:30.122Z,100.00
2023-04-13T01:36:15.998Z,100.00
2023-04-13T01:39:07.747Z,100.00
2023-04-13T01:41:53.366Z,100.00
2023-04-13T01:47:43.910Z,100.00
2023-04-13T01:50:35.997Z,100.00
2023-04-13T01:53:40.200Z,100.00
2023-04-13T01:56:26.199Z,100.00
2023-04-13T01:59:11.509Z,100.00
2023-04-13T02:01:58.565Z,100.00
2023-04-13T02:04:46.410Z,100.00
2023-04-13T02:07:31.961Z,100.00
2023-04-13T02:10:17.533Z,100.00
2023-04-13T02:13:03.297Z,99.26
2023-04-13T02:15:48.380Z,99.53
2023-04-13T02:18:33.718Z,100.00
2023-04-13T02:21:19.237Z,100.00
2023-04-13T02:24:04.788Z,100.00
2023-04-13T02:26:50.264Z,100.00
2023-04-13T02:29:35.645Z,100.00
2023-04-13T02:32:21.203Z,100.00
2023-04-13T02:35:07.999Z,100.00
2023-04-13T02:37:53.263Z,100.00
2023-04-13T02:40:38.857Z,100.00
2023-04-13T02:43:23.984Z,100.00
2023-04-13T02:46:09.405Z,100.00
2023-04-13T02:48:54.848Z,100.00
2023-04-13T02:51:40.206Z,100.00
2023-04-13T02:54:24.959Z,100.00
2023-04-13T02:57:10.462Z,100.00
2023-04-13T02:59:55.584Z,99.05
2023-04-13T03:02:41.114Z,99.00
2023-04-13T03:05:26.331Z,98.03
2023-04-13T03:08:11.809Z,97.84
2023-04-13T03:10:56.757Z,97.79
2023-04-13T03:13:42.179Z,97.16
2023-04-13T03:16:27.162Z,96.97
2023-04-13T03:19:12.444Z,96.81
2023-04-13T03:21:57.660Z,96.31
2023-04-13T03:24:42.816Z,95.78
2023-04-13T03:27:28.167Z,95.33
2023-04-13T03:30:13.610Z,95.15
2023-04-13T03:32:58.666Z,95.00
2023-04-13T03:35:44.126Z,94.46
2023-04-13T03:38:29.205Z,93.94
2023-04-13T03:41:14.291Z,94.00
2023-04-13T03:43:59.912Z,93.13
2023-04-13T03:46:45.721Z,93.11
2023-04-13T03:49:31.101Z,92.43
2023-04-13T03:52:16.495Z,92.06
2023-04-13T03:55:02.014Z,91.52
2023-04-13T03:57:47.287Z,91.32
2023-04-13T04:00:32.685Z,90.57
2023-04-13T04:03:17.943Z,91.02
2023-04-13T04:06:03.262Z,90.86
2023-04-13T04:08:48.133Z,90.96
2023-04-13T04:11:33.443Z,90.36
2023-04-13T04:14:18.392Z,90.43
2023-04-13T04:17:03.784Z,90.08
2023-04-13T04:19:49.110Z,90.18
2023-04-13T04:22:35.170Z,89.71
2023-04-13T04:25:20.725Z,89.43
2023-04-13T04:28:06.038Z,89.50
2023-04-13T04:30:51.964Z,89.59
2023-04-13T04:33:37.910Z,89.79
2023-04-13T04:36:23.285Z,89.67
2023-04-13T04:39:09.150Z,89.45
2023-04-13T04:41:55.105Z,89.36
2023-04-13T04:44:40.999Z,88.89
2023-04-13T04:47:26.065Z,88.96
2023-04-13T04:50:12.753Z,88.62
2023-04-13T04:52:57.969Z,88.80
2023-04-13T04:55:45.304Z,89.48
2023-04-13T04:58:30.121Z,89.28
2023-04-13T05:01:15.268Z,89.69
2023-04-13T05:04:00.858Z,90.45
2023-04-13T05:06:46.031Z,90.52
2023-04-13T05:09:31.321Z,90.67
2023-04-13T05:12:16.782Z,90.92
2023-04-13T05:15:02.310Z,91.70
2023-04-13T05:17:47.661Z,91.96
2023-04-13T05:20:33.116Z,91.98
2023-04-13T05:23:18.616Z,91.66
2023-04-13T05:26:03.541Z,91.82
2023-04-13T05:28:48.800Z,92.34
2023-04-13T05:31:34.117Z,92.64
2023-04-13T05:34:19.537Z,92.19
2023-04-13T05:37:04.971Z,92.27
2023-04-13T05:39:50.330Z,92.31
2023-04-13T05:42:35.647Z,92.74
2023-04-13T05:45:23.345Z,93.00
2023-04-13T05:48:08.722Z,93.35
2023-04-13T05:50:58.151Z,94.05
2023-04-13T05:53:43.092Z,94.00
2023-04-13T05:56:28.542Z,93.83
2023-04-13T05:59:14.159Z,93.90
2023-04-13T06:01:59.200Z,94.71
2023-04-13T06:04:44.768Z,95.80
2023-04-13T06:07:30.134Z,96.14
2023-04-13T06:10:15.791Z,96.20
2023-04-13T06:13:01.104Z,97.02
2023-04-13T06:15:46.289Z,98.29
2023-04-13T06:18:31.256Z,99.31
2023-04-13T06:21:16.669Z,100.00
2023-04-13T06:24:02.126Z,100.00
2023-04-13T06:26:47.498Z,100.00
2023-04-13T06:29:32.426Z,100.00
2023-04-13T06:32:17.423Z,100.00
2023-04-13T06:35:02.903Z,100.00
2023-04-13T06:37:47.972Z,100.00
2023-04-13T06:40:33.261Z,100.00
2023-04-13T06:43:29.115Z,100.00
2023-04-13T06:46:15.912Z,100.00
2023-04-13T06:49:01.992Z,100.00
2023-04-13T06:51:47.046Z,100.00
2023-04-13T06:54:31.994Z,100.00
2023-04-13T06:57:17.496Z,100.00
2023-04-13T07:00:03.163Z,100.00
2023-04-13T07:02:48.679Z,100.00
2023-04-13T07:05:34.255Z,100.00
2023-04-13T07:08:19.118Z,100.00
2023-04-13T07:11:04.587Z,100.00
2023-04-13T07:13:49.715Z,100.00
2023-04-13T07:16:34.777Z,100.00
2023-04-13T07:19:20.043Z,100.00
2023-04-13T07:22:05.005Z,100.00
2023-04-13T07:24:50.319Z,100.00
2023-04-13T07:27:35.804Z,100.00
2023-04-13T07:30:21.329Z,100.00
2023-04-13T07:33:06.783Z,100.00
2023-04-13T07:35:52.178Z,100.00
2023-04-13T07:38:37.630Z,100.00
2023-04-13T07:41:23.025Z,100.00
2023-04-13T07:44:12.087Z,100.00
2023-04-13T07:46:57.761Z,100.00
2023-04-13T07:49:43.035Z,100.00
2023-04-13T07:52:28.726Z,98.56
2023-04-13T07:55:14.050Z,96.82
2023-04-13T07:57:59.138Z,96.00
2023-04-13T08:00:44.399Z,95.23
2023-04-13T08:03:36.378Z,95.27
2023-04-13T08:06:21.857Z,94.03
2023-04-13T08:09:06.802Z,93.14
2023-04-13T08:11:52.217Z,92.03
2023-04-13T08:14:37.169Z,91.57
2023-04-13T08:17:22.613Z,90.23
2023-04-13T08:20:08.772Z,89.35
2023-04-13T08:22:53.837Z,89.04
2023-04-13T08:25:41.432Z,88.89
2023-04-13T08:28:26.538Z,87.78
2023-04-13T08:31:11.531Z,87.62
2023-04-13T08:33:57.737Z,86.31
2023-04-13T08:36:43.154Z,85.17
2023-04-13T08:39:28.514Z,84.62
2023-04-13T08:42:15.886Z,84.91
2023-04-13T08:45:03.463Z,84.37
2023-04-13T08:47:48.802Z,82.75
2023-04-13T08:50:33.765Z,83.14
2023-04-13T08:53:19.227Z,82.95
2023-04-13T08:56:09.544Z,82.93
2023-04-13T08:59:04.974Z,81.45
2023-04-13T09:01:51.464Z,80.29
2023-04-13T09:04:37.123Z,78.51
2023-04-13T09:07:31.531Z,77.63
2023-04-13T09:10:18.599Z,76.55
2023-04-13T09:13:03.841Z,75.96
2023-04-13T09:15:48.962Z,76.30
2023-04-13T09:18:33.969Z,73.92
2023-04-13T09:21:19.448Z,74.07
2023-04-13T09:24:05.852Z,74.53
2023-04-13T09:26:51.145Z,73.78
2023-04-13T09:29:36.297Z,73.57
2023-04-13T09:32:27.004Z,74.47
2023-04-13T09:35:12.343Z,74.11
2023-04-13T09:37:57.927Z,74.06
2023-04-13T09:40:50.116Z,73.73
2023-04-13T09:43:38.948Z,74.30
2023-04-13T09:46:24.184Z,74.34
2023-04-13T09:49:09.386Z,74.94
2023-04-13T09:51:54.838Z,75.84
2023-04-13T09:54:40.013Z,76.42
2023-04-13T09:57:30.908Z,76.73
2023-04-13T10:00:18.283Z,77.72
2023-04-13T10:03:06.511Z,77.84
2023-04-13T10:05:59.701Z,77.50
2023-04-13T10:08:45.706Z,78.09
2023-04-13T10:11:37.187Z,78.37
2023-04-13T10:14:25.811Z,79.21
2023-04-13T10:17:32.563Z,79.32
2023-04-13T10:20:17.905Z,78.74
2023-04-13T10:23:04.624Z,78.81
2023-04-13T10:25:54.285Z,79.36
2023-04-13T10:28:43.926Z,80.05
2023-04-13T10:31:40.597Z,81.08
2023-04-13T10:34:27.876Z,81.57
2023-04-13T10:37:24.043Z,81.47
2023-04-13T10:40:09.439Z,81.30
2023-04-13T10:42:54.831Z,80.58
2023-04-13T10:45:39.972Z,81.07
2023-04-13T10:48:25.339Z,81.45
2023-04-13T10:51:10.361Z,80.92
2023-04-13T10:54:08.439Z,80.02
2023-04-13T10:56:57.856Z,79.50
2023-04-13T11:02:33.142Z,80.41
2023-04-13T11:05:20.376Z,80.82
2023-04-13T11:08:05.877Z,80.66
2023-04-13T11:10:52.998Z,80.57
2023-04-13T11:13:45.490Z,80.97
2023-04-13T11:16:31.150Z,80.38
2023-04-13T11:19:16.342Z,81.32
2023-04-13T11:22:01.629Z,79.29
2023-04-13T11:24:46.567Z,80.00
2023-04-13T11:27:31.910Z,79.96
2023-04-13T11:30:17.339Z,79.86
2023-04-13T11:33:02.847Z,79.24
2023-04-13T11:35:50.343Z,79.92
2023-04-13T11:38:35.625Z,77.49
2023-04-13T11:41:21.004Z,76.27
2023-04-13T11:44:06.470Z,77.27
2023-04-13T11:46:52.561Z,77.26
2023-04-13T11:49:37.920Z,78.08
2023-04-13T11:52:23.208Z,79.38
2023-04-13T11:55:21.571Z,79.39
2023-04-13T11:58:16.976Z,79.09
2023-04-13T12:01:13.781Z,78.81
2023-04-13T12:04:14.015Z,78.99
2023-04-13T12:07:00.636Z,77.05
2023-04-13T12:15:39.132Z,77.28
2023-04-13T12:18:34.411Z,76.05
2023-04-13T12:21:23.567Z,77.03
2023-04-13T12:24:08.892Z,75.72
2023-04-13T12:29:42.119Z,76.16
2023-04-13T12:32:27.663Z,76.55
2023-04-13T12:35:13.612Z,75.59
2023-04-13T12:37:58.711Z,75.96
2023-04-13T12:40:44.097Z,75.71
2023-04-13T12:43:29.845Z,76.40
2023-04-13T12:46:14.775Z,75.22
2023-04-13T12:49:00.304Z,74.31
2023-04-13T12:51:45.557Z,74.32
2023-04-13T12:54:30.334Z,75.83
2023-04-13T12:57:15.721Z,74.43
2023-04-13T13:00:01.199Z,74.46
2023-04-13T13:02:46.684Z,73.76
2023-04-13T13:05:32.236Z,73.32
2023-04-13T13:08:17.537Z,73.74
2023-04-13T13:11:03.071Z,73.24
2023-04-13T13:13:48.474Z,72.57
2023-04-13T13:16:33.919Z,72.04
2023-04-13T13:19:19.393Z,72.56
2023-04-13T13:22:04.802Z,71.72
2023-04-13T13:24:50.282Z,71.06
2023-04-13T13:30:24.885Z,70.71
2023-04-13T13:33:10.321Z,71.37
2023-04-13T13:35:55.664Z,72.47
2023-04-13T13:38:41.361Z,71.53
2023-04-13T13:41:26.594Z,72.18
2023-04-13T13:44:12.069Z,69.69
2023-04-13T13:46:57.422Z,68.45
2023-04-13T13:49:42.812Z,67.91
2023-04-13T13:52:28.212Z,68.92
2023-04-13T13:55:13.131Z,67.09
2023-04-13T13:57:58.837Z,66.68
2023-04-13T14:00:44.227Z,67.11
2023-04-13T14:03:29.502Z,67.18
2023-04-13T14:06:14.828Z,66.65
2023-04-13T14:09:00.296Z,66.08
2023-04-13T14:11:46.115Z,66.15
2023-04-13T14:14:30.963Z,66.37
2023-04-13T14:17:16.346Z,65.28
2023-04-13T14:20:02.406Z,66.01
2023-04-13T14:22:47.469Z,66.50
2023-04-13T14:25:32.932Z,66.08
2023-04-13T14:28:18.379Z,66.20
2023-04-13T14:31:03.968Z,65.72
2023-04-13T14:33:49.204Z,65.69
2023-04-13T14:36:34.200Z,64.94
2023-04-13T14:39:19.527Z,64.73
2023-04-13T14:42:04.887Z,65.20
2023-04-13T14:44:50.220Z,63.63
2023-04-13T14:47:35.668Z,63.42
2023-04-13T14:50:21.022Z,63.63
2023-04-13T14:53:06.351Z,64.10
2023-04-13T14:55:51.710Z,63.79
2023-04-13T14:58:37.030Z,63.05
2023-04-13T15:01:22.514Z,61.01
2023-04-13T15:04:08.043Z,60.73
2023-04-13T15:06:53.447Z,60.93
2023-04-13T15:09:38.866Z,61.54
2023-04-13T15:12:23.780Z,62.88
2023-04-13T15:15:09.787Z,62.27
2023-04-13T15:17:55.239Z,64.18
2023-04-13T15:20:40.446Z,63.31
2023-04-13T15:23:25.299Z,63.29
2023-04-13T15:26:19.482Z,63.81
2023-04-13T15:29:04.715Z,63.33
2023-04-13T15:31:49.905Z,63.36
2023-04-13T15:34:35.165Z,63.71
2023-04-13T15:37:20.197Z,64.09
2023-04-13T15:40:06.133Z,63.54
2023-04-13T15:42:51.264Z,62.80
2023-04-13T15:45:36.357Z,61.24
2023-04-13T15:48:21.776Z,60.93
2023-04-13T15:51:07.220Z,59.82
2023-04-13T15:53:52.611Z,60.56
2023-04-13T15:56:46.352Z,61.14
2023-04-13T15:59:31.468Z,61.32
2023-04-13T16:02:16.681Z,59.39
2023-04-13T16:05:02.426Z,60.67
2023-04-13T16:07:48.587Z,62.97
2023-04-13T16:10:33.732Z,62.07
2023-04-13T16:13:18.764Z,61.93
2023-04-13T16:16:04.343Z,61.35
2023-04-13T16:18:49.634Z,61.25
2023-04-13T16:21:35.048Z,61.66
2023-04-13T16:24:19.882Z,59.92
2023-04-13T16:27:05.394Z,58.20
2023-04-13T16:29:50.209Z,57.66
2023-04-13T16:32:35.784Z,55.55
2023-04-13T16:35:21.054Z,55.63
2023-04-13T16:38:06.425Z,56.61
2023-04-13T16:40:51.628Z,55.82
2023-04-13T16:43:37.160Z,55.85
2023-04-13T16:46:22.333Z,57.17
2023-04-13T16:49:07.586Z,56.53
2023-04-13T16:51:52.510Z,55.30
2023-04-13T16:54:42.003Z,54.31
2023-04-13T16:57:27.536Z,53.21
2023-04-13T17:00:13.136Z,53.64
2023-04-13T17:02:58.336Z,54.55
2023-04-13T17:05:43.597Z,55.61
2023-04-13T17:08:29.074Z,56.64
2023-04-13T17:11:14.432Z,57.69
2023-04-13T17:14:00.155Z,58.26
2023-04-13T17:16:45.407Z,58.85
2023-04-13T17:19:30.855Z,59.70
2023-04-13T17:22:15.956Z,60.59
2023-04-13T17:25:01.462Z,61.96
2023-04-13T17:27:46.947Z,62.30
2023-04-13T17:30:31.996Z,63.17
2023-04-13T17:33:17.468Z,62.84
2023-04-13T17:36:02.621Z,62.13
2023-04-13T17:38:48.141Z,62.13
2023-04-13T17:41:33.985Z,61.99
2023-04-13T17:44:18.920Z,61.75
2023-04-13T17:47:04.226Z,61.88
2023-04-13T17:49:49.182Z,62.15
2023-04-13T17:52:34.183Z,62.55
2023-04-13T17:55:19.699Z,64.00
2023-04-13T17:58:05.760Z,64.68
2023-04-13T18:00:50.810Z,65.50
2023-04-13T18:03:36.817Z,66.36
2023-04-13T18:06:22.157Z,67.15
2023-04-13T18:09:07.656Z,68.50
2023-04-13T18:11:52.748Z,68.58
2023-04-13T18:14:37.613Z,67.81
2023-04-13T18:17:23.090Z,67.61
2023-04-13T18:20:08.787Z,66.40
2023-04-13T18:22:54.154Z,67.66
2023-04-13T18:25:39.105Z,67.60
2023-04-13T18:28:24.643Z,68.04
2023-04-13T18:31:09.672Z,69.66
2023-04-13T18:33:54.711Z,69.18
2023-04-13T18:36:40.095Z,70.80
2023-04-13T18:39:25.506Z,70.19
2023-04-13T18:42:10.510Z,69.82
2023-04-13T18:44:55.809Z,69.83
2023-04-13T18:47:41.451Z,69.37
2023-04-13T18:50:26.721Z,70.63
2023-04-13T18:53:11.887Z,72.19
2023-04-13T18:55:58.168Z,73.64
2023-04-13T18:58:43.499Z,73.78
2023-04-13T19:01:28.864Z,73.36
2023-04-13T19:04:14.227Z,75.62
2023-04-13T19:06:59.626Z,76.84
2023-04-13T19:09:44.547Z,76.58
2023-04-13T19:12:29.840Z,75.89
2023-04-13T19:15:14.858Z,76.40
2023-04-13T19:18:00.339Z,77.46
2023-04-13T19:20:45.801Z,78.82
2023-04-13T19:23:30.591Z,79.44
2023-04-13T19:26:15.945Z,80.23
2023-04-13T19:29:00.829Z,80.41
2023-04-13T19:31:46.401Z,80.19
2023-04-13T19:34:32.438Z,81.26
2023-04-13T19:37:17.520Z,81.57
2023-04-13T19:40:05.473Z,81.76
2023-04-13T19:42:50.871Z,82.47
2023-04-13T19:45:36.790Z,83.44
2023-04-13T19:48:22.225Z,83.69
2023-04-13T19:51:07.568Z,84.38
2023-04-13T19:53:53.548Z,85.24
2023-04-13T19:56:38.878Z,85.42
2023-04-13T19:59:24.057Z,85.87
2023-04-13T20:02:09.472Z,86.10
2023-04-13T20:04:54.823Z,86.72
2023-04-13T20:07:40.361Z,87.77
2023-04-13T20:10:25.383Z,88.19
2023-04-13T20:13:10.909Z,89.38
2023-04-13T20:15:56.489Z,89.40
2023-04-13T20:18:41.890Z,90.23
2023-04-13T20:21:27.449Z,89.64
2023-04-13T20:24:12.809Z,89.93
2023-04-13T20:26:58.196Z,90.20
2023-04-13T20:29:43.250Z,90.75
2023-04-13T20:32:28.726Z,91.52
2023-04-13T20:35:14.190Z,92.13
2023-04-13T20:37:59.596Z,92.06
2023-04-13T20:40:44.742Z,91.99
2023-04-13T20:43:30.318Z,92.55
2023-04-13T20:46:16.126Z,93.42
2023-04-13T20:49:02.077Z,93.75
2023-04-13T20:51:47.624Z,93.80
2023-04-13T20:54:33.289Z,93.68
2023-04-13T20:57:18.951Z,93.51
2023-04-13T21:00:04.540Z,93.38
2023-04-13T21:02:50.269Z,94.31
2023-04-13T21:05:35.791Z,94.30
2023-04-13T21:08:20.926Z,94.10
2023-04-13T21:11:06.257Z,93.79
2023-04-13T21:13:51.602Z,94.34
2023-04-13T21:16:37.097Z,94.41
2023-04-13T21:19:22.517Z,95.14
2023-04-13T21:22:07.654Z,95.10
2023-04-13T21:24:53.207Z,94.53
2023-04-13T21:27:38.450Z,94.58
2023-04-13T21:30:23.281Z,95.45
2023-04-13T21:33:08.630Z,95.30
2023-04-13T21:35:53.552Z,95.44
2023-04-13T21:38:39.730Z,95.57
2023-04-13T21:41:24.876Z,96.09
2023-04-13T21:44:22.565Z,96.34
2023-04-13T21:47:14.151Z,97.30
2023-04-13T21:49:59.000Z,98.34
2023-04-13T21:52:43.826Z,99.29
2023-04-13T21:55:28.754Z,99.63
2023-04-13T21:58:13.629Z,99.82
2023-04-13T22:00:59.077Z,99.93
2023-04-13T22:03:48.237Z,99.93
2023-04-13T22:06:33.802Z,99.66
2023-04-13T22:09:19.215Z,99.41
2023-04-13T22:12:04.271Z,100.00
2023-04-13T22:14:49.523Z,100.00
2023-04-13T22:17:34.899Z,100.00
2023-04-13T22:20:20.156Z,100.00
2023-04-13T22:23:06.721Z,100.00
2023-04-13T22:25:56.375Z,100.00
2023-04-13T22:28:41.670Z,100.00
2023-04-13T22:31:27.220Z,100.00
2023-04-13T22:34:12.562Z,100.00
2023-04-13T22:36:57.450Z,100.00
2023-04-13T22:39:42.396Z,100.00
2023-04-13T22:42:28.152Z,100.00
2023-04-13T22:45:13.539Z,100.00
2023-04-13T22:47:58.864Z,100.00
2023-04-13T22:50:44.254Z,100.00
2023-04-13T22:53:29.881Z,100.00
2023-04-13T22:56:15.262Z,100.00
2023-04-13T22:59:00.594Z,100.00
2023-04-13T23:01:45.801Z,100.00
2023-04-13T23:04:31.237Z,100.00
2023-04-13T23:07:16.513Z,100.00
2023-04-13T23:10:01.871Z,100.00
2023-04-13T23:12:46.897Z,100.00
2023-04-13T23:15:32.028Z,100.00
2023-04-13T23:18:17.450Z,100.00
2023-04-13T23:21:12.490Z,100.00
2023-04-13T23:23:57.843Z,100.00
2023-04-13T23:26:43.130Z,100.00
2023-04-13T23:29:28.615Z,100.00
2023-04-13T23:32:13.940Z,100.00
2023-04-13T23:34:59.371Z,100.00
2023-04-13T23:37:44.118Z,100.00
2023-04-13T23:40:29.600Z,100.00
2023-04-13T23:43:15.043Z,100.00
2023-04-13T23:46:00.008Z,100.00
2023-04-13T23:48:45.346Z,100.00
2023-04-13T23:51:30.210Z,100.00
2023-04-13T23:54:15.684Z,100.00
2023-04-13T23:57:01.009Z,100.00
2023-04-13T23:59:46.363Z,100.00
